createdAt,value
2022-11-05T00:00:17.868Z,6.60
2022-11-05T00:03:03.381Z,6.50
2022-11-05T00:05:49.373Z,6.50
2022-11-05T00:08:34.900Z,6.60
2022-11-05T00:11:02.893Z,6.60
2022-11-05T00:13:48.205Z,6.60
2022-11-05T00:16:37.255Z,6.50
2022-11-05T00:19:07.785Z,6.60
2022-11-05T00:21:54.823Z,6.60
2022-11-05T00:24:40.258Z,6.50
2022-11-05T00:27:08.728Z,6.60
2022-11-05T00:29:36.602Z,6.60
2022-11-05T00:32:06.098Z,6.60
2022-11-05T00:34:33.929Z,6.70
2022-11-05T00:37:01.733Z,6.70
2022-11-05T00:39:30.257Z,6.70
2022-11-05T00:42:11.944Z,6.70
2022-11-05T00:44:57.044Z,6.70
2022-11-05T00:47:43.712Z,6.70
2022-11-05T00:50:11.805Z,6.70
2022-11-05T00:52:59.855Z,6.70
2022-11-05T00:55:30.804Z,6.70
2022-11-05T00:57:59.017Z,6.70
2022-11-05T01:00:29.351Z,6.70
2022-11-05T01:03:00.881Z,6.60
2022-11-05T01:05:29.262Z,6.60
2022-11-05T01:07:57.729Z,6.50
2022-11-05T01:10:25.680Z,6.60
2022-11-05T01:12:53.912Z,6.60
2022-11-05T01:15:22.150Z,6.50
2022-11-05T01:17:51.098Z,6.50
2022-11-05T01:20:20.553Z,6.50
2022-11-05T01:22:48.315Z,6.50
2022-11-05T01:25:16.258Z,6.40
2022-11-05T01:27:44.052Z,6.40
2022-11-05T01:30:13.219Z,6.50
2022-11-05T01:32:41.080Z,6.40
2022-11-05T01:35:13.252Z,6.40
2022-11-05T01:37:42.752Z,6.40
2022-11-05T01:40:13.365Z,6.40
2022-11-05T01:42:41.109Z,6.50
2022-11-05T01:45:16.447Z,6.50
2022-11-05T01:48:02.300Z,6.50
2022-11-05T01:50:42.208Z,6.50
2022-11-05T01:53:17.943Z,6.40
2022-11-05T01:55:50.553Z,6.30
2022-11-05T01:58:21.429Z,6.30
2022-11-05T02:00:49.389Z,6.30
2022-11-05T02:03:18.868Z,6.20
2022-11-05T02:05:48.653Z,6.20
2022-11-05T02:08:26.792Z,6.20
2022-11-05T02:10:54.801Z,6.10
2022-11-05T02:13:22.570Z,6.20
2022-11-05T02:16:00.536Z,6.20
2022-11-05T02:18:38.757Z,6.20
2022-11-05T02:21:28.971Z,6.10
2022-11-05T02:24:32.742Z,6.10
2022-11-05T02:27:15.548Z,6.00
2022-11-05T02:30:08.276Z,6.00
2022-11-05T02:32:59.233Z,6.00
2022-11-05T02:36:00.602Z,5.90
2022-11-05T02:38:37.108Z,5.90
2022-11-05T02:41:09.372Z,5.80
2022-11-05T02:43:48.053Z,5.80
2022-11-05T02:46:29.755Z,5.80
2022-11-05T02:49:10.328Z,5.70
2022-11-05T02:51:44.852Z,5.70
2022-11-05T02:54:18.237Z,5.70
2022-11-05T02:56:49.133Z,5.70
2022-11-05T02:59:16.943Z,5.70
2022-11-05T03:01:47.687Z,5.70
2022-11-05T03:04:20.690Z,5.70
2022-11-05T03:07:15.219Z,5.70
2022-11-05T03:10:03.569Z,5.70
2022-11-05T03:12:40.593Z,5.70
2022-11-05T03:15:18.833Z,5.70
2022-11-05T03:17:56.834Z,5.70
2022-11-05T03:20:32.065Z,5.70
2022-11-05T03:23:06.265Z,5.80
2022-11-05T03:25:40.478Z,6.00
2022-11-05T03:28:11.710Z,6.00
2022-11-05T03:30:41.026Z,6.10
2022-11-05T03:33:14.444Z,6.10
2022-11-05T03:35:48.037Z,6.20
2022-11-05T03:38:22.805Z,6.20
2022-11-05T03:40:54.185Z,6.30
2022-11-05T03:43:25.249Z,6.40
2022-11-05T03:46:00.040Z,6.50
2022-11-05T03:48:31.201Z,6.60
2022-11-05T03:51:09.514Z,6.60
2022-11-05T03:53:43.212Z,6.70
2022-11-05T03:56:18.118Z,6.70
2022-11-05T03:58:48.391Z,6.70
2022-11-05T04:01:16.772Z,6.70
2022-11-05T04:03:44.640Z,6.70
2022-11-05T04:06:31.509Z,6.80
2022-11-05T04:09:16.910Z,6.80
2022-11-05T04:12:02.389Z,6.80
2022-11-05T04:14:31.299Z,6.90
2022-11-05T04:17:07.228Z,6.80
2022-11-05T04:19:52.941Z,6.90
2022-11-05T04:22:39.411Z,6.90
2022-11-05T04:25:07.521Z,6.90
2022-11-05T04:27:35.618Z,7.00
2022-11-05T04:30:21.667Z,7.00
2022-11-05T04:33:01.194Z,7.00
2022-11-05T04:35:29.751Z,6.90
2022-11-05T04:37:58.981Z,7.00
2022-11-05T04:40:27.167Z,7.00
2022-11-05T04:42:55.937Z,7.00
2022-11-05T04:45:24.270Z,7.00
2022-11-05T04:47:52.140Z,7.00
2022-11-05T04:50:19.910Z,7.00
2022-11-05T04:52:47.675Z,7.10
2022-11-05T04:55:16.793Z,7.00
2022-11-05T04:57:44.766Z,7.00
2022-11-05T05:00:12.834Z,7.00
2022-11-05T05:02:40.605Z,7.10
2022-11-05T05:05:08.680Z,7.10
2022-11-05T05:07:36.670Z,7.10
2022-11-05T05:10:06.477Z,7.10
2022-11-05T05:12:35.735Z,7.10
2022-11-05T05:15:03.812Z,7.10
2022-11-05T05:17:31.684Z,7.10
2022-11-05T05:20:16.827Z,7.00
2022-11-05T05:22:44.609Z,7.10
2022-11-05T05:25:12.387Z,7.10
2022-11-05T05:27:41.533Z,7.10
2022-11-05T05:30:10.896Z,7.20
2022-11-05T05:32:38.777Z,7.20
2022-11-05T05:35:07.356Z,7.20
2022-11-05T05:37:35.096Z,7.20
2022-11-05T05:40:03.092Z,7.20
2022-11-05T05:42:30.890Z,7.20
2022-11-05T05:45:00.033Z,7.20
2022-11-05T05:47:27.820Z,7.30
2022-11-05T05:49:55.605Z,7.30
2022-11-05T05:52:23.414Z,7.30
2022-11-05T05:54:51.205Z,7.30
2022-11-05T05:57:19.020Z,7.30
2022-11-05T05:59:46.798Z,7.40
2022-11-05T06:02:16.136Z,7.40
2022-11-05T06:04:44.171Z,7.30
2022-11-05T06:07:11.946Z,7.30
2022-11-05T06:09:39.730Z,7.30
2022-11-05T06:12:08.014Z,7.30
2022-11-05T06:14:35.803Z,7.40
2022-11-05T06:17:03.597Z,7.30
2022-11-05T06:19:32.769Z,7.40
2022-11-05T06:22:00.501Z,7.40
2022-11-05T06:24:28.254Z,7.40
2022-11-05T06:26:56.028Z,7.40
2022-11-05T06:29:23.783Z,7.40
2022-11-05T06:31:51.558Z,7.40
2022-11-05T06:34:19.326Z,7.50
2022-11-05T06:36:48.407Z,7.50
2022-11-05T06:39:16.182Z,7.60
2022-11-05T06:42:11.867Z,7.60
2022-11-05T06:44:32.535Z,7.60
2022-11-05T06:47:00.779Z,7.60
2022-11-05T06:49:28.560Z,7.60
2022-11-05T06:51:59.144Z,7.70
2022-11-05T06:54:26.928Z,7.70
2022-11-05T06:56:55.613Z,7.70
2022-11-05T06:59:23.396Z,7.80
2022-11-05T07:01:51.249Z,7.70
2022-11-05T07:04:19.118Z,7.80
2022-11-05T07:06:46.933Z,7.80
2022-11-05T07:09:16.405Z,7.90
2022-11-05T07:11:44.182Z,7.90
2022-11-05T07:14:12.052Z,7.90
2022-11-05T07:16:39.885Z,8.00
2022-11-05T07:19:07.652Z,8.00
2022-11-05T07:21:35.444Z,8.10
2022-11-05T07:24:03.453Z,8.10
2022-11-05T07:26:34.666Z,8.10
2022-11-05T07:29:02.782Z,8.10
2022-11-05T07:31:30.716Z,8.10
2022-11-05T07:33:59.134Z,8.20
2022-11-05T07:36:26.985Z,8.20
2022-11-05T07:38:59.064Z,8.20
2022-11-05T07:41:28.512Z,8.20
2022-11-05T07:43:57.672Z,8.30
2022-11-05T07:46:25.483Z,8.40
2022-11-05T07:48:53.266Z,8.40
2022-11-05T07:51:21.098Z,8.40
2022-11-05T07:53:49.069Z,8.40
2022-11-05T07:56:17.190Z,8.40
2022-11-05T07:58:44.984Z,8.30
2022-11-05T08:01:14.276Z,8.40
2022-11-05T08:03:42.290Z,8.50
2022-11-05T08:06:10.195Z,8.50
2022-11-05T08:08:38.149Z,8.60
2022-11-05T08:11:07.109Z,8.70
2022-11-05T08:13:35.387Z,8.70
2022-11-05T08:16:03.764Z,8.70
2022-11-05T08:18:34.087Z,8.70
2022-11-05T08:21:05.134Z,8.60
2022-11-05T08:23:33.352Z,8.70
2022-11-05T08:26:04.663Z,8.80
2022-11-05T08:28:32.527Z,8.90
2022-11-05T08:31:00.474Z,8.90
2022-11-05T08:33:31.153Z,9.00
2022-11-05T08:36:04.244Z,9.10
2022-11-05T08:38:32.884Z,9.10
2022-11-05T08:41:00.788Z,9.10
2022-11-05T08:43:28.577Z,9.20
2022-11-05T08:45:56.763Z,9.30
2022-11-05T08:48:24.673Z,9.30
2022-11-05T08:50:52.572Z,9.20
2022-11-05T08:53:21.797Z,9.20
2022-11-05T08:55:51.414Z,9.20
2022-11-05T08:58:20.568Z,9.20
2022-11-05T09:00:50.554Z,9.30
2022-11-05T09:03:18.666Z,9.20
2022-11-05T09:05:55.689Z,9.20
2022-11-05T09:08:33.712Z,9.10
2022-11-05T09:11:03.346Z,9.20
2022-11-05T09:13:31.281Z,9.30
2022-11-05T09:16:07.463Z,9.30
2022-11-05T09:18:35.693Z,9.20
2022-11-05T09:21:07.284Z,9.30
2022-11-05T09:23:36.592Z,9.30
2022-11-05T09:26:04.498Z,9.40
2022-11-05T09:28:33.116Z,9.40
2022-11-05T09:31:01.267Z,9.30
2022-11-05T09:33:29.098Z,9.30
2022-11-05T09:36:01.082Z,9.20
2022-11-05T09:38:29.138Z,9.10
2022-11-05T09:41:02.327Z,9.10
2022-11-05T09:43:35.917Z,9.20
2022-11-05T09:46:10.368Z,9.10
2022-11-05T09:48:40.242Z,9.20
2022-11-05T09:51:08.377Z,9.20
2022-11-05T09:53:40.881Z,9.30
2022-11-05T09:56:20.939Z,9.20
2022-11-05T09:58:52.753Z,9.00
2022-11-05T10:01:25.106Z,9.00
2022-11-05T10:03:56.896Z,9.00
2022-11-05T10:06:26.405Z,8.90
2022-11-05T10:09:01.097Z,8.90
2022-11-05T10:11:34.700Z,8.90
2022-11-05T10:14:08.417Z,8.90
2022-11-05T10:16:40.434Z,8.90
2022-11-05T10:19:11.141Z,8.70
2022-11-05T10:22:04.977Z,9.10
2022-11-05T10:24:26.724Z,9.20
2022-11-05T10:26:56.741Z,9.30
2022-11-05T10:29:29.297Z,9.40
2022-11-05T10:31:58.458Z,9.50
2022-11-05T10:34:34.051Z,9.50
2022-11-05T10:37:02.298Z,9.40
2022-11-05T10:39:32.736Z,9.50
2022-11-05T10:42:24.957Z,9.60
2022-11-05T10:45:09.999Z,9.50
2022-11-05T10:47:53.419Z,9.50
2022-11-05T10:50:25.678Z,9.60
2022-11-05T10:53:03.750Z,9.70
2022-11-05T10:55:40.202Z,9.80
2022-11-05T10:58:27.145Z,9.80
2022-11-05T11:01:08.294Z,9.90
2022-11-05T11:03:43.358Z,9.90
2022-11-05T11:06:22.702Z,10.00
2022-11-05T11:08:55.062Z,10.10
2022-11-05T11:11:29.059Z,10.20
2022-11-05T11:14:04.390Z,10.20
2022-11-05T11:16:37.484Z,10.10
2022-11-05T11:19:21.789Z,10.00
2022-11-05T11:22:17.586Z,9.90
2022-11-05T11:24:49.959Z,9.90
2022-11-05T11:27:22.563Z,9.90
2022-11-05T11:29:57.896Z,9.90
2022-11-05T11:32:29.020Z,10.00
2022-11-05T11:34:58.400Z,9.90
2022-11-05T11:37:29.463Z,9.90
2022-11-05T11:40:01.072Z,9.80
2022-11-05T11:42:32.522Z,9.70
2022-11-05T11:45:06.888Z,9.70
2022-11-05T11:47:35.133Z,9.60
2022-11-05T11:50:03.629Z,9.60
2022-11-05T11:52:33.069Z,9.50
2022-11-05T11:55:27.751Z,9.40
2022-11-05T11:58:06.970Z,9.40
2022-11-05T12:00:43.656Z,9.40
2022-11-05T12:03:25.483Z,9.30
2022-11-05T12:06:01.651Z,9.20
2022-11-05T12:08:45.535Z,9.20
2022-11-05T12:11:20.630Z,9.10
2022-11-05T12:14:05.462Z,9.10
2022-11-05T12:17:09.211Z,9.00
2022-11-05T12:20:12.593Z,9.00
2022-11-05T12:22:59.508Z,9.00
2022-11-05T12:25:33.576Z,8.90
2022-11-05T12:28:18.881Z,8.90
2022-11-05T12:30:55.165Z,9.00
2022-11-05T12:33:44.582Z,9.10
2022-11-05T12:36:34.076Z,9.10
2022-11-05T12:39:20.146Z,9.20
2022-11-05T12:41:56.240Z,9.20
2022-11-05T12:44:51.128Z,9.20
2022-11-05T12:47:34.961Z,9.20
2022-11-05T12:50:16.663Z,9.30
2022-11-05T12:53:17.306Z,9.20
2022-11-05T12:55:49.369Z,9.10
2022-11-05T12:58:22.512Z,9.10
2022-11-05T13:00:55.675Z,9.10
2022-11-05T13:03:31.699Z,9.10
2022-11-05T13:06:06.056Z,9.00
2022-11-05T13:08:42.110Z,8.90
2022-11-05T13:11:20.804Z,9.00
2022-11-05T13:13:59.401Z,9.00
2022-11-05T13:16:33.533Z,9.00
2022-11-05T13:19:08.113Z,9.00
2022-11-05T13:21:37.141Z,9.00
2022-11-05T13:24:14.100Z,9.00
2022-11-05T13:26:52.114Z,9.10
2022-11-05T13:29:24.145Z,9.20
2022-11-05T13:31:55.297Z,9.20
2022-11-05T13:34:23.323Z,9.10
2022-11-05T13:37:14.191Z,9.10
2022-11-05T13:39:50.216Z,9.10
2022-11-05T13:42:49.021Z,9.00
2022-11-05T13:45:39.563Z,9.00
2022-11-05T13:48:40.910Z,9.00
2022-11-05T13:51:51.084Z,9.10
2022-11-05T13:54:49.636Z,9.00
2022-11-05T13:57:37.796Z,9.00
2022-11-05T14:00:12.469Z,8.90
2022-11-05T14:02:43.945Z,8.80
2022-11-05T14:05:24.224Z,8.90
2022-11-05T14:07:53.153Z,8.90
2022-11-05T14:10:29.764Z,9.00
2022-11-05T14:13:02.533Z,9.00
2022-11-05T14:15:33.006Z,9.00
2022-11-05T14:18:03.153Z,9.00
2022-11-05T14:20:58.458Z,9.00
2022-11-05T14:23:51.862Z,9.00
2022-11-05T14:26:25.545Z,9.00
2022-11-05T14:29:28.778Z,9.00
2022-11-05T14:32:09.293Z,9.00
2022-11-05T14:34:47.357Z,8.90
2022-11-05T14:37:27.830Z,8.90
2022-11-05T14:39:56.597Z,8.80
2022-11-05T14:42:27.372Z,8.80
2022-11-05T14:45:01.765Z,8.80
2022-11-05T14:47:33.894Z,8.80
2022-11-05T14:50:11.421Z,8.70
2022-11-05T14:52:40.916Z,8.70
2022-11-05T14:55:27.220Z,8.60
2022-11-05T14:58:27.150Z,8.60
2022-11-05T15:00:55.882Z,8.70
2022-11-05T15:04:01.293Z,8.70
2022-11-05T15:06:32.148Z,8.70
2022-11-05T15:09:13.414Z,8.70
2022-11-05T15:11:46.577Z,8.70
2022-11-05T15:14:22.264Z,8.80
2022-11-05T15:16:53.139Z,8.70
2022-11-05T15:19:27.963Z,8.70
2022-11-05T15:21:59.759Z,8.70
2022-11-05T15:24:29.027Z,8.70
2022-11-05T15:27:05.193Z,8.60
2022-11-05T15:29:35.058Z,8.60
2022-11-05T15:32:03.408Z,8.60
2022-11-05T15:34:35.498Z,8.60
2022-11-05T15:37:05.144Z,8.60
2022-11-05T15:39:39.629Z,8.50
2022-11-05T15:42:13.778Z,8.60
2022-11-05T15:44:44.381Z,8.60
2022-11-05T15:47:19.313Z,8.60
2022-11-05T15:49:50.972Z,8.50
2022-11-05T15:52:20.907Z,8.50
2022-11-05T15:55:08.504Z,8.50
2022-11-05T15:57:40.328Z,8.50
2022-11-05T16:00:16.653Z,8.50
2022-11-05T16:02:50.473Z,8.50
2022-11-05T16:05:20.230Z,8.50
2022-11-05T16:07:49.176Z,8.50
2022-11-05T16:10:21.742Z,8.50
2022-11-05T16:12:49.561Z,8.40
2022-11-05T16:15:23.784Z,8.50
2022-11-05T16:17:54.611Z,8.40
2022-11-05T16:20:28.428Z,8.40
2022-11-05T16:22:58.009Z,8.30
2022-11-05T16:25:36.478Z,8.40
2022-11-05T16:28:05.731Z,8.30
2022-11-05T16:30:33.570Z,8.40
2022-11-05T16:33:07.293Z,8.40
2022-11-05T16:35:46.818Z,8.40
2022-11-05T16:38:14.901Z,8.30
2022-11-05T16:40:42.864Z,8.30
2022-11-05T16:43:18.709Z,8.40
2022-11-05T16:45:46.531Z,8.40
2022-11-05T16:48:15.662Z,8.30
2022-11-05T16:50:45.930Z,8.40
2022-11-05T16:53:13.974Z,8.40
2022-11-05T16:55:43.838Z,8.30
2022-11-05T16:58:21.401Z,8.30
2022-11-05T17:00:50.244Z,8.30
2022-11-05T17:03:18.138Z,8.30
2022-11-05T17:05:47.612Z,8.30
2022-11-05T17:08:15.731Z,8.20
2022-11-05T17:10:43.860Z,8.20
2022-11-05T17:13:15.715Z,8.20
2022-11-05T17:15:44.893Z,8.20
2022-11-05T17:18:18.248Z,8.20
2022-11-05T17:20:49.774Z,8.20
2022-11-05T17:23:19.475Z,8.10
2022-11-05T17:25:49.224Z,8.10
2022-11-05T17:28:17.657Z,8.10
2022-11-05T17:30:52.293Z,8.10
2022-11-05T17:33:22.590Z,8.10
2022-11-05T17:35:53.118Z,8.10
2022-11-05T17:38:21.783Z,8.10
2022-11-05T17:40:49.710Z,8.10
2022-11-05T17:43:17.642Z,8.10
2022-11-05T17:45:47.724Z,8.10
2022-11-05T17:48:15.894Z,8.10
2022-11-05T17:50:45.059Z,8.00
2022-11-05T17:53:15.412Z,8.10
2022-11-05T17:55:44.781Z,8.10
2022-11-05T17:58:13.425Z,8.10
2022-11-05T18:00:42.432Z,8.00
2022-11-05T18:03:11.532Z,8.10
2022-11-05T18:05:40.174Z,8.00
2022-11-05T18:08:09.065Z,8.00
2022-11-05T18:10:39.719Z,8.00
2022-11-05T18:13:08.034Z,8.00
2022-11-05T18:15:37.928Z,7.90
2022-11-05T18:18:05.753Z,7.90
2022-11-05T18:20:34.026Z,8.00
2022-11-05T18:23:02.155Z,8.00
2022-11-05T18:25:30.041Z,8.00
2022-11-05T18:27:59.149Z,8.00
2022-11-05T18:30:27.038Z,7.90
2022-11-05T18:32:54.946Z,8.00
2022-11-05T18:35:22.779Z,8.00
2022-11-05T18:37:50.753Z,7.90
2022-11-05T18:40:18.570Z,8.00
2022-11-05T18:42:46.319Z,8.00
2022-11-05T18:45:15.492Z,8.00
2022-11-05T18:47:43.277Z,8.00
2022-11-05T18:50:11.344Z,8.00
2022-11-05T18:52:39.145Z,8.00
2022-11-05T18:55:08.298Z,8.00
2022-11-05T18:57:36.132Z,7.90
2022-11-05T19:00:04.959Z,7.90
2022-11-05T19:02:34.340Z,7.90
2022-11-05T19:07:50.183Z,8.00
2022-11-05T19:10:18.409Z,8.00
2022-11-05T19:12:46.222Z,8.00
2022-11-05T19:15:14.144Z,8.00
2022-11-05T19:17:43.302Z,8.00
2022-11-05T19:20:12.330Z,8.00
2022-11-05T19:22:40.219Z,8.00
2022-11-05T19:25:08.994Z,7.90
2022-11-05T19:27:37.520Z,7.90
2022-11-05T19:30:06.713Z,7.90
2022-11-05T19:32:34.481Z,7.80
2022-11-05T19:35:03.694Z,7.80
2022-11-05T19:37:31.456Z,7.80
2022-11-05T19:39:59.246Z,7.80
2022-11-05T19:42:27.875Z,7.80
2022-11-05T19:44:55.775Z,7.90
2022-11-05T19:47:23.534Z,7.80
2022-11-05T19:49:51.313Z,7.80
2022-11-05T19:52:20.565Z,7.80
2022-11-05T19:54:48.352Z,7.70
2022-11-05T19:57:16.142Z,7.70
2022-11-05T19:59:43.965Z,7.60
2022-11-05T20:02:16.075Z,7.60
2022-11-05T20:04:44.449Z,7.50
2022-11-05T20:07:12.545Z,7.40
2022-11-05T20:09:41.692Z,7.30
2022-11-05T20:12:09.498Z,7.20
2022-11-05T20:14:37.524Z,7.20
2022-11-05T20:17:05.298Z,7.00
2022-11-05T20:19:33.647Z,7.00
2022-11-05T20:22:01.750Z,7.00
2022-11-05T20:24:29.653Z,6.90
2022-11-05T20:26:59.060Z,6.80
2022-11-05T20:29:33.865Z,6.80
2022-11-05T20:32:03.448Z,6.80
2022-11-05T20:34:32.142Z,6.70
2022-11-05T20:36:59.921Z,6.70
2022-11-05T20:39:27.913Z,6.60
2022-11-05T20:41:56.689Z,6.50
2022-11-05T20:44:25.929Z,6.50
2022-11-05T20:46:53.805Z,6.50
2022-11-05T20:49:25.396Z,6.50
2022-11-05T20:51:53.788Z,6.40
2022-11-05T20:54:21.579Z,6.30
2022-11-05T20:56:49.373Z,6.20
2022-11-05T20:59:17.170Z,6.20
2022-11-05T21:01:46.518Z,6.20
2022-11-05T21:04:14.435Z,6.20
2022-11-05T21:06:42.219Z,6.20
2022-11-05T21:09:10.070Z,6.30
2022-11-05T21:11:51.798Z,6.40
2022-11-05T21:14:19.576Z,6.30
2022-11-05T21:16:48.693Z,6.40
2022-11-05T21:19:16.497Z,6.40
2022-11-05T21:21:44.307Z,6.40
2022-11-05T21:24:12.100Z,6.40
2022-11-05T21:26:39.875Z,6.50
2022-11-05T21:29:08.332Z,6.40
2022-11-05T21:31:37.241Z,6.40
2022-11-05T21:34:06.354Z,6.30
2022-11-05T21:36:34.796Z,6.20
2022-11-05T21:39:02.835Z,6.20
2022-11-05T21:41:30.824Z,6.20
2022-11-05T21:43:58.675Z,6.10
2022-11-05T21:46:26.533Z,6.10
2022-11-05T21:48:54.293Z,6.10
2022-11-05T21:51:41.604Z,6.00
2022-11-05T21:54:28.579Z,5.90
2022-11-05T21:57:13.981Z,5.90
2022-11-05T21:59:51.939Z,5.90
2022-11-05T22:02:22.020Z,5.90
2022-11-05T22:04:52.739Z,5.90
2022-11-05T22:07:24.709Z,5.80
2022-11-05T22:09:52.608Z,5.70
2022-11-05T22:12:20.798Z,5.80
2022-11-05T22:14:48.592Z,5.80
2022-11-05T22:17:16.715Z,5.80
2022-11-05T22:19:44.610Z,5.70
2022-11-05T22:22:12.749Z,5.70
2022-11-05T22:24:42.303Z,5.70
2022-11-05T22:27:13.498Z,5.60
2022-11-05T22:29:41.310Z,5.60
2022-11-05T22:32:10.488Z,5.70
2022-11-05T22:34:38.578Z,5.60
2022-11-05T22:37:06.650Z,5.50
2022-11-05T22:39:34.514Z,5.50
2022-11-05T22:42:08.316Z,5.50
2022-11-05T22:44:37.427Z,5.40
2022-11-05T22:47:05.571Z,5.40
2022-11-05T22:49:33.969Z,5.50
2022-11-05T22:52:01.847Z,5.50
2022-11-05T22:54:32.722Z,5.50
2022-11-05T22:57:04.475Z,5.50
2022-11-05T22:59:32.243Z,5.50
2022-11-05T23:02:03.908Z,5.50
2022-11-05T23:04:34.444Z,5.50
2022-11-05T23:07:24.597Z,5.50
2022-11-05T23:10:12.590Z,5.40
2022-11-05T23:12:43.013Z,5.40
2022-11-05T23:15:31.709Z,5.30
2022-11-05T23:18:17.139Z,5.30
2022-11-05T23:21:02.560Z,5.30
2022-11-05T23:23:47.998Z,5.20
2022-11-05T23:26:33.392Z,5.10
2022-11-05T23:29:02.479Z,5.10
2022-11-05T23:31:47.694Z,5.20
2022-11-05T23:34:15.509Z,5.20
2022-11-05T23:37:06.324Z,5.10
2022-11-05T23:39:39.797Z,5.10
2022-11-05T23:42:28.705Z,5.00
2022-11-05T23:45:15.542Z,5.00
2022-11-05T23:48:02.008Z,5.00
2022-11-05T23:50:35.647Z,4.90
2022-11-05T23:53:07.854Z,4.90
2022-11-05T23:55:36.231Z,5.00
2022-11-05T23:58:04.295Z,4.90
